createdAt,value
2022-11-24T00:00:10.385Z,-3.85
2022-11-24T00:02:39.142Z,-3.86
2022-11-24T00:05:09.413Z,-3.86
2022-11-24T00:07:38.200Z,-3.81
2022-11-24T00:10:09.621Z,-3.78
2022-11-24T00:12:38.291Z,-3.80
2022-11-24T00:15:07.957Z,-3.75
2022-11-24T00:17:36.833Z,-3.71
2022-11-24T00:20:06.707Z,-3.72
2022-11-24T00:22:35.285Z,-3.82
2022-11-24T00:25:04.098Z,-3.81
2022-11-24T00:27:34.258Z,-3.76
2022-11-24T00:30:02.970Z,-3.87
2022-11-24T00:32:33.021Z,-3.91
2022-11-24T00:35:01.710Z,-3.85
2022-11-24T00:37:31.633Z,-3.97
2022-11-24T00:40:00.544Z,-3.90
2022-11-24T00:42:29.151Z,-3.91
2022-11-24T00:44:59.132Z,-3.92
2022-11-24T00:47:28.877Z,-3.91
2022-11-24T00:49:57.539Z,-3.83
2022-11-24T00:52:26.190Z,-3.89
2022-11-24T00:54:54.959Z,-3.86
2022-11-24T00:57:23.609Z,-3.87
2022-11-24T00:59:52.246Z,-3.85
2022-11-24T01:02:22.341Z,-3.88
2022-11-24T01:04:51.189Z,-3.84
2022-11-24T01:07:19.836Z,-3.98
2022-11-24T01:09:48.414Z,-4.00
2022-11-24T01:12:16.984Z,-4.06
2022-11-24T01:14:45.616Z,-3.99
2022-11-24T01:17:14.261Z,-4.02
2022-11-24T01:19:47.219Z,-3.98
2022-11-24T01:22:15.892Z,-3.95
2022-11-24T01:24:45.785Z,-3.97
2022-11-24T01:27:14.373Z,-4.09
2022-11-24T01:29:42.985Z,-4.04
2022-11-24T01:32:11.759Z,-4.02
2022-11-24T01:34:40.462Z,-4.00
2022-11-24T01:37:10.641Z,-3.96
2022-11-24T01:39:39.237Z,-4.01
2022-11-24T01:42:08.994Z,-3.99
2022-11-24T01:44:37.669Z,-4.00
2022-11-24T01:47:17.913Z,-3.98
2022-11-24T01:49:51.388Z,-3.93
2022-11-24T01:52:27.227Z,-3.90
2022-11-24T01:55:01.937Z,-3.99
2022-11-24T01:57:39.241Z,-4.00
2022-11-24T02:00:12.667Z,-3.97
2022-11-24T02:02:46.575Z,-3.95
2022-11-24T02:05:22.602Z,-4.06
2022-11-24T02:07:57.055Z,-4.07
2022-11-24T02:10:27.194Z,-4.13
2022-11-24T02:13:01.374Z,-4.13
2022-11-24T02:15:30.927Z,-4.15
2022-11-24T02:18:00.821Z,-4.11
2022-11-24T02:20:33.847Z,-4.11
2022-11-24T02:23:16.768Z,-4.15
2022-11-24T02:26:00.562Z,-4.15
2022-11-24T02:28:32.621Z,-4.18
2022-11-24T02:31:03.141Z,-4.18
2022-11-24T02:33:32.320Z,-4.19
2022-11-24T02:36:01.027Z,-4.20
2022-11-24T02:38:32.441Z,-4.25
2022-11-24T02:41:05.222Z,-4.15
2022-11-24T02:43:43.642Z,-4.15
2022-11-24T02:46:12.454Z,-4.22
2022-11-24T02:48:41.243Z,-4.16
2022-11-24T02:51:09.948Z,-4.22
2022-11-24T02:53:38.798Z,-4.18
2022-11-24T02:56:08.860Z,-4.13
2022-11-24T02:58:38.904Z,-4.15
2022-11-24T03:01:08.120Z,-4.13
2022-11-24T03:03:38.462Z,-4.15
2022-11-24T03:06:07.543Z,-4.13
2022-11-24T03:08:36.203Z,-4.14
2022-11-24T03:11:05.251Z,-4.21
2022-11-24T03:13:35.427Z,-4.22
2022-11-24T03:16:10.211Z,-4.24
2022-11-24T03:18:39.134Z,-4.19
2022-11-24T03:21:08.195Z,-4.21
2022-11-24T03:23:41.692Z,-4.17
2022-11-24T03:26:13.407Z,-4.13
2022-11-24T03:28:43.764Z,-4.09
2022-11-24T03:31:14.563Z,-4.13
2022-11-24T03:33:43.655Z,-4.08
2022-11-24T03:36:13.917Z,-3.95
2022-11-24T03:38:42.539Z,-3.96
2022-11-24T03:41:11.477Z,-3.93
2022-11-24T03:43:43.719Z,-3.93
2022-11-24T03:46:14.790Z,-3.90
2022-11-24T03:48:43.466Z,-3.95
2022-11-24T03:51:12.823Z,-3.97
2022-11-24T03:53:41.542Z,-3.95
2022-11-24T03:56:11.675Z,-3.86
2022-11-24T03:58:41.770Z,-3.83
2022-11-24T04:01:10.483Z,-3.86
2022-11-24T04:03:41.177Z,-3.81
2022-11-24T04:06:09.904Z,-3.76
2022-11-24T04:08:38.540Z,-3.79
2022-11-24T04:11:09.675Z,-3.83
2022-11-24T04:13:39.955Z,-3.83
2022-11-24T04:16:09.601Z,-3.87
2022-11-24T04:18:38.284Z,-3.88
2022-11-24T04:21:08.416Z,-3.89
2022-11-24T04:23:39.303Z,-3.95
2022-11-24T04:26:11.824Z,-3.94
2022-11-24T04:28:40.877Z,-3.99
2022-11-24T04:31:09.610Z,-3.95
2022-11-24T04:33:38.292Z,-3.89
2022-11-24T04:36:09.095Z,-3.87
2022-11-24T04:39:19.760Z,-3.92
2022-11-24T04:41:26.531Z,-3.88
2022-11-24T04:43:56.003Z,-3.90
2022-11-24T04:46:32.586Z,-3.92
2022-11-24T04:49:06.194Z,-3.95
2022-11-24T04:51:36.257Z,-4.08
2022-11-24T04:54:05.008Z,-4.04
2022-11-24T04:56:33.790Z,-3.95
2022-11-24T04:59:08.018Z,-4.01
2022-11-24T05:01:38.300Z,-3.99
2022-11-24T05:04:08.305Z,-3.99
2022-11-24T05:06:41.060Z,-3.89
2022-11-24T05:09:17.074Z,-3.94
2022-11-24T05:11:45.845Z,-3.93
2022-11-24T05:14:14.482Z,-3.87
2022-11-24T05:16:43.256Z,-3.93
2022-11-24T05:19:13.035Z,-3.97
2022-11-24T05:21:43.184Z,-3.96
2022-11-24T05:24:12.320Z,-3.87
2022-11-24T05:26:42.163Z,-3.88
2022-11-24T05:29:11.083Z,-3.87
2022-11-24T05:31:40.469Z,-3.86
2022-11-24T05:34:10.409Z,-3.92
2022-11-24T05:37:01.673Z,-3.87
2022-11-24T05:39:33.467Z,-3.90
2022-11-24T05:42:23.359Z,-3.89
2022-11-24T05:44:52.306Z,-4.02
2022-11-24T05:47:21.941Z,-3.93
2022-11-24T05:49:52.880Z,-3.96
2022-11-24T05:52:21.851Z,-3.99
2022-11-24T05:54:52.371Z,-3.97
2022-11-24T05:57:21.301Z,-4.00
2022-11-24T05:59:50.350Z,-4.04
2022-11-24T06:02:20.092Z,-4.06
2022-11-24T06:04:51.242Z,-4.06
2022-11-24T06:07:22.337Z,-4.02
2022-11-24T06:09:52.778Z,-4.05
2022-11-24T06:12:23.024Z,-4.03
2022-11-24T06:14:54.502Z,-4.06
2022-11-24T06:17:25.659Z,-4.10
2022-11-24T06:19:54.869Z,-4.18
2022-11-24T06:22:23.985Z,-4.21
2022-11-24T06:24:54.594Z,-4.23
2022-11-24T06:27:23.754Z,-4.21
2022-11-24T06:29:52.952Z,-4.20
2022-11-24T06:32:22.466Z,-4.11
2022-11-24T06:34:52.634Z,-4.12
2022-11-24T06:37:21.652Z,-4.10
2022-11-24T06:39:55.754Z,-4.06
2022-11-24T06:42:24.537Z,-4.05
2022-11-24T06:44:53.276Z,-3.99
2022-11-24T06:47:22.192Z,-3.98
2022-11-24T06:49:50.827Z,-4.02
2022-11-24T06:52:19.633Z,-4.08
2022-11-24T06:54:51.998Z,-4.02
2022-11-24T06:57:22.548Z,-3.97
2022-11-24T06:59:51.356Z,-3.95
2022-11-24T07:02:20.316Z,-3.90
2022-11-24T07:04:48.984Z,-3.87
2022-11-24T07:07:17.692Z,-3.86
2022-11-24T07:09:46.428Z,-3.85
2022-11-24T07:12:15.144Z,-3.87
2022-11-24T07:14:45.653Z,-3.81
2022-11-24T07:17:16.436Z,-3.81
2022-11-24T07:19:45.131Z,-3.81
2022-11-24T07:22:16.584Z,-3.81
2022-11-24T07:24:45.467Z,-3.86
2022-11-24T07:27:14.220Z,-3.81
2022-11-24T07:29:44.319Z,-3.75
2022-11-24T07:32:14.265Z,-3.84
2022-11-24T07:34:47.169Z,-3.90
2022-11-24T07:37:15.914Z,-3.99
2022-11-24T07:39:44.594Z,-3.98
2022-11-24T07:42:34.165Z,-4.01
2022-11-24T07:45:05.792Z,-3.91
2022-11-24T07:47:34.466Z,-3.92
2022-11-24T07:50:03.234Z,-3.94
2022-11-24T07:52:32.003Z,-3.86
2022-11-24T07:55:00.716Z,-3.81
2022-11-24T07:57:29.839Z,-3.74
2022-11-24T07:59:58.796Z,-3.69
2022-11-24T08:02:30.757Z,-3.77
2022-11-24T08:04:59.399Z,-3.73
2022-11-24T08:07:28.202Z,-3.68
2022-11-24T08:09:57.019Z,-3.62
2022-11-24T08:12:26.380Z,-3.56
2022-11-24T08:14:54.992Z,-3.52
2022-11-24T08:17:23.677Z,-3.39
2022-11-24T08:19:53.931Z,-3.47
2022-11-24T08:22:23.862Z,-3.62
2022-11-24T08:24:52.836Z,-3.71
2022-11-24T08:27:21.931Z,-3.67
2022-11-24T08:29:50.573Z,-3.73
2022-11-24T08:32:22.463Z,-3.81
2022-11-24T08:35:08.558Z,-3.72
2022-11-24T08:37:43.300Z,-3.74
2022-11-24T08:40:14.039Z,-3.71
2022-11-24T08:42:43.196Z,-3.71
2022-11-24T08:45:21.091Z,-3.64
2022-11-24T08:47:55.895Z,-3.48
2022-11-24T08:50:27.297Z,-3.36
2022-11-24T08:52:56.235Z,-3.29
2022-11-24T08:55:24.847Z,-3.19
2022-11-24T08:57:53.480Z,-3.11
2022-11-24T09:00:23.853Z,-3.25
2022-11-24T09:02:57.868Z,-3.25
2022-11-24T09:08:16.699Z,-3.42
2022-11-24T09:10:46.866Z,-3.35
2022-11-24T09:13:15.569Z,-3.27
2022-11-24T09:15:44.426Z,-3.25
2022-11-24T09:18:13.365Z,-3.27
2022-11-24T09:20:43.365Z,-3.17
2022-11-24T09:23:12.116Z,-3.17
2022-11-24T09:25:40.831Z,-3.14
2022-11-24T09:28:09.420Z,-3.06
2022-11-24T09:30:38.265Z,-3.13
2022-11-24T09:33:06.955Z,-3.11
2022-11-24T09:35:39.508Z,-3.25
2022-11-24T09:38:10.384Z,-3.21
2022-11-24T09:40:39.518Z,-3.11
2022-11-24T09:43:20.522Z,-3.13
2022-11-24T09:46:06.799Z,-3.17
2022-11-24T09:48:40.792Z,-3.19
2022-11-24T09:51:15.080Z,-3.41
2022-11-24T09:53:54.624Z,-3.40
2022-11-24T09:56:28.898Z,-3.39
2022-11-24T09:59:04.356Z,-3.32
2022-11-24T10:01:37.029Z,-3.27
2022-11-24T10:04:16.287Z,-3.15
2022-11-24T10:06:57.305Z,-3.06
2022-11-24T10:09:47.197Z,-3.11
2022-11-24T10:12:40.085Z,-3.22
2022-11-24T10:15:28.197Z,-3.34
2022-11-24T10:18:30.291Z,-3.26
2022-11-24T10:21:20.339Z,-3.22
2022-11-24T10:24:22.487Z,-3.16
2022-11-24T10:27:19.394Z,-3.08
2022-11-24T10:30:06.429Z,-3.04
2022-11-24T10:32:42.426Z,-3.16
2022-11-24T10:35:20.976Z,-3.20
2022-11-24T10:38:01.850Z,-3.22
2022-11-24T10:40:56.612Z,-3.32
2022-11-24T10:43:29.753Z,-3.17
2022-11-24T10:46:13.901Z,-3.18
2022-11-24T10:48:49.248Z,-3.19
2022-11-24T10:51:51.751Z,-3.23
2022-11-24T10:54:24.976Z,-3.32
2022-11-24T10:56:56.601Z,-3.21
2022-11-24T10:59:57.746Z,-3.08
2022-11-24T11:02:38.688Z,-3.01
2022-11-24T11:05:44.180Z,-2.92
2022-11-24T11:08:42.832Z,-3.02
2022-11-24T11:11:21.877Z,-3.10
2022-11-24T11:14:03.065Z,-3.20
2022-11-24T11:16:57.640Z,-3.14
2022-11-24T11:19:49.730Z,-3.16
2022-11-24T11:22:34.102Z,-3.26
2022-11-24T11:25:19.409Z,-3.28
2022-11-24T11:27:49.796Z,-3.25
2022-11-24T11:36:18.410Z,-3.27
2022-11-24T11:38:49.497Z,-3.25
2022-11-24T11:41:25.600Z,-3.14
2022-11-24T11:44:11.566Z,-3.14
2022-11-24T11:46:43.051Z,-3.27
2022-11-24T11:49:14.833Z,-3.21
2022-11-24T11:52:08.312Z,-3.06
2022-11-24T11:54:58.082Z,-2.99
2022-11-24T11:57:39.574Z,-3.01
2022-11-24T12:00:20.303Z,-3.04
2022-11-24T12:03:24.327Z,-3.04
2022-11-24T12:06:10.902Z,-3.09
2022-11-24T12:09:19.221Z,-3.00
2022-11-24T12:11:54.512Z,-3.05
2022-11-24T12:14:41.919Z,-3.03
2022-11-24T12:17:25.726Z,-3.05
2022-11-24T12:20:20.317Z,-2.96
2022-11-24T12:23:25.171Z,-2.99
2022-11-24T12:26:05.680Z,-3.16
2022-11-24T12:29:06.936Z,-3.25
2022-11-24T12:31:48.167Z,-3.37
2022-11-24T12:34:45.203Z,-3.39
2022-11-24T12:37:37.746Z,-3.42
2022-11-24T12:40:25.155Z,-3.37
2022-11-24T12:43:09.223Z,-3.48
2022-11-24T12:45:47.250Z,-3.56
2022-11-24T12:48:33.238Z,-3.56
2022-11-24T12:51:07.164Z,-3.51
2022-11-24T12:53:39.547Z,-3.52
2022-11-24T12:56:15.990Z,-3.52
2022-11-24T12:58:53.860Z,-3.55
2022-11-24T13:01:37.128Z,-3.58
2022-11-24T13:04:17.949Z,-3.55
2022-11-24T13:06:55.767Z,-3.49
2022-11-24T13:09:30.334Z,-3.52
2022-11-24T13:12:14.118Z,-3.52
2022-11-24T13:14:47.920Z,-3.58
2022-11-24T13:17:41.974Z,-3.52
2022-11-24T13:20:28.098Z,-3.60
2022-11-24T13:23:00.201Z,-3.64
2022-11-24T13:25:32.147Z,-3.69
2022-11-24T13:29:08.940Z,-3.76
2022-11-24T13:31:47.152Z,-3.73
2022-11-24T13:34:55.849Z,-3.72
2022-11-24T13:37:52.839Z,-3.79
2022-11-24T13:40:59.908Z,-3.76
2022-11-24T13:43:36.914Z,-3.75
2022-11-24T13:46:06.439Z,-3.74
2022-11-24T13:49:00.343Z,-3.73
2022-11-24T13:51:29.682Z,-3.76
2022-11-24T13:54:01.240Z,-3.82
2022-11-24T13:56:32.953Z,-3.84
2022-11-24T13:59:19.407Z,-3.78
2022-11-24T14:01:59.084Z,-3.79
2022-11-24T14:04:31.399Z,-3.89
2022-11-24T14:07:09.111Z,-3.87
2022-11-24T14:09:46.827Z,-3.90
2022-11-24T14:12:23.451Z,-3.89
2022-11-24T14:14:56.797Z,-3.88
2022-11-24T14:17:28.558Z,-3.90
2022-11-24T14:19:59.542Z,-3.93
2022-11-24T14:22:37.936Z,-4.02
2022-11-24T14:25:20.446Z,-3.97
2022-11-24T14:27:49.075Z,-3.99
2022-11-24T14:30:23.538Z,-3.99
2022-11-24T14:32:57.661Z,-3.97
2022-11-24T14:35:30.814Z,-4.06
2022-11-24T14:38:00.308Z,-4.19
2022-11-24T14:40:42.057Z,-4.20
2022-11-24T14:43:31.485Z,-4.14
2022-11-24T14:46:12.287Z,-4.05
2022-11-24T14:48:50.256Z,-4.13
2022-11-24T14:51:26.082Z,-4.09
2022-11-24T14:54:00.244Z,-4.14
2022-11-24T14:56:33.236Z,-4.25
2022-11-24T14:59:02.086Z,-4.25
2022-11-24T15:01:36.286Z,-4.22
2022-11-24T15:04:54.578Z,-4.22
2022-11-24T15:07:27.144Z,-4.21
2022-11-24T15:09:58.886Z,-4.29
2022-11-24T15:12:35.519Z,-4.28
2022-11-24T15:15:07.847Z,-4.32
2022-11-24T15:17:38.470Z,-4.34
2022-11-24T15:20:18.179Z,-4.39
2022-11-24T15:22:52.325Z,-4.44
2022-11-24T15:25:31.288Z,-4.37
2022-11-24T15:28:00.456Z,-4.48
2022-11-24T15:30:29.635Z,-4.48
2022-11-24T15:33:00.927Z,-4.50
2022-11-24T15:35:33.756Z,-4.64
2022-11-24T15:38:02.432Z,-4.65
2022-11-24T15:40:32.330Z,-4.66
2022-11-24T15:43:06.291Z,-4.72
2022-11-24T15:45:35.914Z,-4.82
2022-11-24T15:48:06.359Z,-4.81
2022-11-24T15:50:37.151Z,-4.73
2022-11-24T15:53:06.956Z,-4.79
2022-11-24T15:55:36.767Z,-4.94
2022-11-24T15:58:14.635Z,-4.95
2022-11-24T16:00:45.247Z,-4.92
2022-11-24T16:03:45.817Z,-5.02
2022-11-24T16:06:16.749Z,-5.17
2022-11-24T16:08:50.368Z,-5.19
2022-11-24T16:11:19.078Z,-5.28
2022-11-24T16:13:52.539Z,-5.30
2022-11-24T16:16:24.861Z,-5.32
2022-11-24T16:18:55.048Z,-5.28
2022-11-24T16:21:23.647Z,-5.34
2022-11-24T16:23:52.468Z,-5.30
2022-11-24T16:26:21.049Z,-5.27
2022-11-24T16:28:49.632Z,-5.26
2022-11-24T16:31:19.851Z,-5.23
2022-11-24T16:33:48.664Z,-5.15
2022-11-24T16:36:18.657Z,-5.11
2022-11-24T16:38:47.256Z,-5.11
2022-11-24T16:41:16.199Z,-5.07
2022-11-24T16:43:44.904Z,-5.05
2022-11-24T16:46:22.676Z,-5.07
2022-11-24T16:48:53.795Z,-5.04
2022-11-24T16:51:28.717Z,-5.03
2022-11-24T16:54:02.046Z,-5.06
2022-11-24T16:56:32.080Z,-5.05
2022-11-24T16:59:00.748Z,-5.05
2022-11-24T17:01:29.910Z,-5.04
2022-11-24T17:03:58.594Z,-5.04
2022-11-24T17:06:30.049Z,-5.03
2022-11-24T17:08:58.670Z,-5.03
2022-11-24T17:11:29.476Z,-5.09
2022-11-24T17:13:59.188Z,-5.06
2022-11-24T17:16:28.888Z,-5.07
2022-11-24T17:18:58.837Z,-5.09
2022-11-24T17:21:30.047Z,-5.18
2022-11-24T17:24:01.607Z,-5.18
2022-11-24T17:26:30.462Z,-5.15
2022-11-24T17:28:59.217Z,-5.13
2022-11-24T17:31:32.094Z,-5.21
2022-11-24T17:34:02.682Z,-5.16
2022-11-24T17:36:35.867Z,-5.27
2022-11-24T17:39:07.219Z,-5.23
2022-11-24T17:41:35.924Z,-5.22
2022-11-24T17:44:06.292Z,-5.19
2022-11-24T17:46:37.824Z,-5.23
2022-11-24T17:49:08.507Z,-5.20
2022-11-24T17:51:38.752Z,-5.19
2022-11-24T17:54:31.151Z,-5.14
2022-11-24T17:56:56.393Z,-5.20
2022-11-24T17:59:25.113Z,-5.20
2022-11-24T18:01:54.125Z,-5.32
2022-11-24T18:04:23.741Z,-5.21
2022-11-24T18:06:54.014Z,-5.23
2022-11-24T18:09:22.962Z,-5.22
2022-11-24T18:11:52.182Z,-5.34
2022-11-24T18:14:21.550Z,-5.32
2022-11-24T18:16:50.326Z,-5.26
2022-11-24T18:19:18.985Z,-5.28
2022-11-24T18:21:47.816Z,-5.27
2022-11-24T18:24:23.767Z,-5.30
2022-11-24T18:26:52.919Z,-5.35
2022-11-24T18:29:22.016Z,-5.26
2022-11-24T18:31:50.732Z,-5.19
2022-11-24T18:34:19.708Z,-5.19
2022-11-24T18:36:52.183Z,-5.20
2022-11-24T18:39:22.267Z,-5.18
2022-11-24T18:41:51.167Z,-5.20
2022-11-24T18:44:19.912Z,-5.32
2022-11-24T18:46:53.837Z,-5.38
2022-11-24T18:49:23.649Z,-5.34
2022-11-24T18:51:52.749Z,-5.34
2022-11-24T18:54:22.729Z,-5.35
2022-11-24T18:56:51.965Z,-5.32
2022-11-24T18:59:20.640Z,-5.31
2022-11-24T19:01:49.403Z,-5.34
2022-11-24T19:04:18.377Z,-5.27
2022-11-24T19:06:47.041Z,-5.18
2022-11-24T19:09:21.062Z,-5.16
2022-11-24T19:11:51.087Z,-5.20
2022-11-24T19:14:20.707Z,-5.16
2022-11-24T19:16:49.406Z,-5.15
2022-11-24T19:19:18.253Z,-5.13
2022-11-24T19:21:46.972Z,-5.25
2022-11-24T19:24:15.922Z,-5.27
2022-11-24T19:26:44.696Z,-5.32
2022-11-24T19:29:23.683Z,-5.32
2022-11-24T19:31:54.993Z,-5.34
2022-11-24T19:34:23.763Z,-5.39
2022-11-24T19:36:52.615Z,-5.35
2022-11-24T19:39:21.628Z,-5.32
2022-11-24T19:41:50.478Z,-5.30
2022-11-24T19:44:19.627Z,-5.23
2022-11-24T19:46:49.743Z,-5.23
2022-11-24T19:49:18.465Z,-5.22
2022-11-24T19:51:48.998Z,-5.26
2022-11-24T19:54:18.165Z,-5.30
2022-11-24T19:56:46.865Z,-5.35
2022-11-24T19:59:18.699Z,-5.38
2022-11-24T20:01:49.964Z,-5.51
2022-11-24T20:04:20.520Z,-5.58
2022-11-24T20:06:50.300Z,-5.75
2022-11-24T20:09:19.705Z,-5.64
2022-11-24T20:11:49.351Z,-5.74
2022-11-24T20:14:19.404Z,-5.65
2022-11-24T20:16:52.788Z,-5.65
2022-11-24T20:19:21.825Z,-5.59
2022-11-24T20:21:52.581Z,-5.52
2022-11-24T20:24:24.815Z,-5.41
2022-11-24T20:26:58.251Z,-5.34
2022-11-24T20:29:28.997Z,-5.37
2022-11-24T20:31:59.191Z,-5.37
2022-11-24T20:34:30.552Z,-5.50
2022-11-24T20:36:59.276Z,-5.55
2022-11-24T20:39:29.258Z,-5.46
2022-11-24T20:41:58.221Z,-5.55
2022-11-24T20:44:28.196Z,-5.46
2022-11-24T20:47:00.419Z,-5.47
2022-11-24T20:49:29.622Z,-5.49
2022-11-24T20:51:58.591Z,-5.43
2022-11-24T20:54:29.018Z,-5.37
2022-11-24T20:56:59.671Z,-5.30
2022-11-24T20:59:28.668Z,-5.25
2022-11-24T21:01:59.765Z,-5.24
2022-11-24T21:04:31.228Z,-5.32
2022-11-24T21:07:00.178Z,-5.31
2022-11-24T21:09:29.041Z,-5.33
2022-11-24T21:11:57.755Z,-5.35
2022-11-24T21:14:30.129Z,-5.46
2022-11-24T21:17:04.216Z,-5.38
2022-11-24T21:19:33.480Z,-5.45
2022-11-24T21:22:04.051Z,-5.46
2022-11-24T21:24:38.175Z,-5.46
2022-11-24T21:27:07.228Z,-5.43
2022-11-24T21:29:36.761Z,-5.46
2022-11-24T21:32:07.714Z,-5.54
2022-11-24T21:34:37.249Z,-5.53
2022-11-24T21:37:16.188Z,-5.54
2022-11-24T21:39:48.535Z,-5.57
2022-11-24T21:42:21.400Z,-5.56
2022-11-24T21:44:51.144Z,-5.64
2022-11-24T21:47:21.431Z,-5.62
2022-11-24T21:49:50.404Z,-5.70
2022-11-24T21:52:23.055Z,-5.62
2022-11-24T21:54:51.682Z,-5.58
2022-11-24T21:57:20.806Z,-5.60
2022-11-24T21:59:50.782Z,-5.59
2022-11-24T22:02:25.821Z,-5.51
2022-11-24T22:04:56.661Z,-5.47
2022-11-24T22:07:25.638Z,-5.41
2022-11-24T22:09:55.946Z,-5.42
2022-11-24T22:12:25.839Z,-5.43
2022-11-24T22:14:54.502Z,-5.37
2022-11-24T22:17:24.880Z,-5.43
2022-11-24T22:19:53.804Z,-5.44
2022-11-24T22:22:22.410Z,-5.46
2022-11-24T22:24:51.368Z,-5.51
2022-11-24T22:27:19.970Z,-5.56
2022-11-24T22:29:52.821Z,-5.51
2022-11-24T22:32:24.306Z,-5.46
2022-11-24T22:34:56.901Z,-5.40
2022-11-24T22:37:26.612Z,-5.44
2022-11-24T22:39:55.335Z,-5.55
2022-11-24T22:42:24.112Z,-5.55
2022-11-24T22:44:52.990Z,-5.51
2022-11-24T22:47:21.635Z,-5.52
2022-11-24T22:49:52.684Z,-5.56
2022-11-24T22:52:21.298Z,-5.53
2022-11-24T22:54:49.928Z,-5.42
2022-11-24T22:57:18.504Z,-5.44
2022-11-24T22:59:47.150Z,-5.46
2022-11-24T23:02:15.795Z,-5.39
2022-11-24T23:04:44.506Z,-5.33
2022-11-24T23:07:15.249Z,-5.27
2022-11-24T23:09:43.913Z,-5.20
2022-11-24T23:12:12.690Z,-5.27
2022-11-24T23:14:42.854Z,-5.24
2022-11-24T23:17:30.648Z,-5.26
2022-11-24T23:19:59.601Z,-5.27
2022-11-24T23:22:29.735Z,-5.27
2022-11-24T23:25:05.631Z,-5.27
2022-11-24T23:27:41.489Z,-5.24
2022-11-24T23:30:18.216Z,-5.29
2022-11-24T23:32:51.236Z,-5.27
2022-11-24T23:35:21.473Z,-5.26
2022-11-24T23:38:07.159Z,-5.24
2022-11-24T23:40:42.896Z,-5.25
2022-11-24T23:43:13.190Z,-5.28
2022-11-24T23:45:44.838Z,-5.22
2022-11-24T23:48:13.587Z,-5.27
2022-11-24T23:50:44.844Z,-5.38
2022-11-24T23:53:14.898Z,-5.35
2022-11-24T23:55:45.509Z,-5.32
2022-11-24T23:58:14.321Z,-5.31
